Time;durP1;ratioP1;P1;durP2;ratioP2;P2;SDS_P1;SDS_P2;PMS_P1;PMS_P2;Temp;Humidity;BMP_temperature;BMP_pressure;BME280_temperature;BME280_humidity;BME280_pressure;Samples;Min_cycle;Max_cycle;Signal;HPM_P1;HPM_P2
2023/01/07 00:02:00;;;;;;;55.73;29.20;;;;;;;;;;5059057;28;20041;-65
2023/01/07 00:04:26;;;;;;;54.73;29.07;;;;;;;;;;5055462;28;20502;-65
2023/01/07 00:06:53;;;;;;;75.80;32.43;;;;;;;;;;5053723;28;20043;-64
2023/01/07 00:09:19;;;;;;;65.30;31.43;;;;;;;;;;5057865;28;20041;-64
2023/01/07 00:11:45;;;;;;;63.60;31.60;;;;;;;;;;5059490;28;20441;-65
2023/01/07 00:14:12;;;;;;;82.37;36.30;;;;;;;;;;5062325;28;20135;-65
2023/01/07 00:16:39;;;;;;;64.07;32.20;;;;;;;;;;5057000;28;20075;-64
2023/01/07 00:19:06;;;;;;;60.20;31.53;;;;;;;;;;5053354;28;20040;-65
2023/01/07 00:21:32;;;;;;;60.60;31.70;;;;;;;;;;5059163;28;20040;-64
2023/01/07 00:24:03;;;;;;;57.67;31.20;;;;;;;;;;5057819;28;20037;-65
2023/01/07 00:26:30;;;;;;;50.30;29.37;;;;;;;;;;5059650;28;20498;-65
2023/01/07 00:28:56;;;;;;;61.17;30.93;;;;;;;;;;5055792;28;20376;-65
2023/01/07 00:31:24;;;;;;;46.77;29.50;;;;;;;;;;5057034;28;20040;-66
2023/01/07 00:34:05;;;;;;;73.60;33.53;;;;;;;;;;5055395;28;20045;-66
2023/01/07 00:36:42;;;;;;;62.63;32.37;;;;;;;;;;5048665;28;20049;-65
2023/01/07 00:39:08;;;;;;;85.30;35.70;;;;;;;;;;5049152;28;20041;-65
2023/01/07 00:41:35;;;;;;;62.73;32.33;;;;;;;;;;5048884;28;20052;-65
2023/01/07 00:44:01;;;;;;;58.20;33.97;;;;;;;;;;5052117;28;20160;-65
2023/01/07 00:46:28;;;;;;;80.53;38.43;;;;;;;;;;5060694;28;20423;-65
2023/01/07 00:48:54;;;;;;;65.00;34.27;;;;;;;;;;5059873;28;20049;-65
2023/01/07 00:51:20;;;;;;;79.87;37.97;;;;;;;;;;5064264;28;20055;-65
2023/01/07 00:53:46;;;;;;;62.53;34.60;;;;;;;;;;5069826;28;20506;-65
2023/01/07 00:56:19;;;;;;;71.47;35.77;;;;;;;;;;5071748;28;20163;-65
2023/01/07 00:58:45;;;;;;;63.08;36.33;;;;;;;;;;5058965;28;20094;-65
2023/01/07 01:01:12;;;;;;;61.10;34.40;;;;;;;;;;5070131;28;20048;-65
2023/01/07 01:03:38;;;;;;;55.77;32.57;;;;;;;;;;5066199;28;20568;-65
2023/01/07 01:06:05;;;;;;;88.30;39.53;;;;;;;;;;5053724;28;20633;-64
2023/01/07 01:08:31;;;;;;;67.67;35.40;;;;;;;;;;5069881;28;20109;-65
2023/01/07 01:11:02;;;;;;;75.13;35.93;;;;;;;;;;5067998;28;20499;-65
2023/01/07 01:13:28;;;;;;;67.20;35.33;;;;;;;;;;5055461;28;20071;-64
2023/01/07 01:15:54;;;;;;;64.50;33.63;;;;;;;;;;5071634;28;20498;-65
2023/01/07 01:18:20;;;;;;;60.23;34.23;;;;;;;;;;5071401;28;20041;-64
2023/01/07 01:20:46;;;;;;;65.77;35.30;;;;;;;;;;5056142;28;20103;-64
2023/01/07 01:23:12;;;;;;;62.77;34.17;;;;;;;;;;5051434;28;20049;-65
2023/01/07 01:25:38;;;;;;;60.67;33.23;;;;;;;;;;5050711;28;20048;-65
2023/01/07 01:28:04;;;;;;;61.00;33.97;;;;;;;;;;5049833;28;20057;-64
2023/01/07 01:30:30;;;;;;;84.23;38.03;;;;;;;;;;5051224;28;20064;-65
2023/01/07 01:32:56;;;;;;;53.10;30.83;;;;;;;;;;5057710;28;20052;-65
2023/01/07 01:35:22;;;;;;;62.43;33.90;;;;;;;;;;5071084;28;20378;-64
2023/01/07 01:37:48;;;;;;;66.20;33.80;;;;;;;;;;5069940;28;20064;-65
2023/01/07 01:40:16;;;;;;;72.40;35.63;;;;;;;;;;5070505;28;20045;-65
2023/01/07 01:42:42;;;;;;;69.60;33.87;;;;;;;;;;5070876;28;20659;-65
2023/01/07 01:45:09;;;;;;;51.67;30.87;;;;;;;;;;5068837;28;20181;-65
2023/01/07 01:47:35;;;;;;;66.83;33.90;;;;;;;;;;5050818;28;20036;-65
2023/01/07 01:50:09;;;;;;;52.17;30.60;;;;;;;;;;5048847;28;20051;-66
2023/01/07 01:52:39;;;;;;;52.53;31.93;;;;;;;;;;5050505;28;20041;-65
2023/01/07 01:55:06;;;;;;;64.57;32.83;;;;;;;;;;5050676;28;20044;-65
2023/01/07 01:57:34;;;;;;;63.73;33.43;;;;;;;;;;5050824;28;20134;-65
2023/01/07 02:00:00;;;;;;;56.77;32.67;;;;;;;;;;5050320;28;20077;-65
2023/01/07 02:02:32;;;;;;;66.03;32.50;;;;;;;;;;5055891;28;20036;-65
2023/01/07 02:04:59;;;;;;;54.53;31.93;;;;;;;;;;5070523;28;20063;-64
2023/01/07 02:07:27;;;;;;;54.33;31.63;;;;;;;;;;5070093;28;20044;-64
2023/01/07 02:09:59;;;;;;;54.07;31.43;;;;;;;;;;5069450;28;20040;-64
2023/01/07 02:12:40;;;;;;;53.83;32.40;;;;;;;;;;5068977;28;20052;-65
2023/01/07 02:15:06;;;;;;;51.83;31.43;;;;;;;;;;5070336;28;20045;-65
2023/01/07 02:17:51;;;;;;;53.03;31.67;;;;;;;;;;5061621;28;20060;-65
2023/01/07 02:20:20;;;;;;;57.63;31.60;;;;;;;;;;5060977;28;20124;-65
2023/01/07 02:22:57;;;;;;;51.97;30.93;;;;;;;;;;5058899;28;20044;-64
2023/01/07 02:25:42;;;;;;;38.93;28.33;;;;;;;;;;5060682;28;20528;-65
2023/01/07 02:28:26;;;;;;;47.80;29.37;;;;;;;;;;5058059;28;20416;-65
2023/01/07 02:31:12;;;;;;;51.30;29.70;;;;;;;;;;5061116;28;20058;-65
2023/01/07 02:33:56;;;;;;;43.27;28.27;;;;;;;;;;5038314;28;20051;-65
2023/01/07 02:36:22;;;;;;;42.55;27.85;;;;;;;;;;5060650;28;20037;-65
2023/01/07 02:38:54;;;;;;;41.63;27.70;;;;;;;;;;5058574;28;20036;-65
2023/01/07 02:41:36;;;;;;;47.30;28.47;;;;;;;;;;5059272;28;20124;-65
2023/01/07 02:44:16;;;;;;;44.67;28.30;;;;;;;;;;5058289;28;20032;-65
2023/01/07 02:46:46;;;;;;;38.83;25.87;;;;;;;;;;5060174;28;20522;-65
2023/01/07 02:49:16;;;;;;;42.73;27.63;;;;;;;;;;5070038;28;20131;-65
2023/01/07 02:51:43;;;;;;;48.17;28.13;;;;;;;;;;5069069;28;20059;-65
2023/01/07 02:54:21;;;;;;;39.50;26.93;;;;;;;;;;5057349;28;20041;-64
2023/01/07 02:56:59;;;;;;;41.53;27.00;;;;;;;;;;5032402;28;20044;-65
2023/01/07 02:59:25;;;;;;;43.10;27.27;;;;;;;;;;5049875;28;20518;-65
2023/01/07 03:02:07;;;;;;;38.97;26.83;;;;;;;;;;5049125;28;20045;-65
2023/01/07 03:04:49;;;;;;;51.60;29.30;;;;;;;;;;5065091;28;20132;-65
2023/01/07 03:07:15;;;;;;;40.33;27.03;;;;;;;;;;5068606;28;20131;-65
2023/01/07 03:09:49;;;;;;;35.97;25.47;;;;;;;;;;5069828;28;20167;-65
2023/01/07 03:12:30;;;;;;;35.40;24.33;;;;;;;;;;5069674;28;20052;-65
2023/01/07 03:14:59;;;;;;;34.30;24.93;;;;;;;;;;5049263;28;20048;-65
2023/01/07 03:17:40;;;;;;;37.80;25.20;;;;;;;;;;5048490;28;20499;-65
2023/01/07 03:20:07;;;;;;;49.27;26.53;;;;;;;;;;5049788;28;20045;-65
2023/01/07 03:22:34;;;;;;;34.87;24.67;;;;;;;;;;5049372;28;20403;-65
2023/01/07 03:25:01;;;;;;;38.90;24.80;;;;;;;;;;5049712;28;20052;-65
2023/01/07 03:27:30;;;;;;;37.93;24.53;;;;;;;;;;5049188;28;20041;-65
2023/01/07 03:29:56;;;;;;;33.40;23.40;;;;;;;;;;5047867;28;20502;-65
2023/01/07 03:32:30;;;;;;;33.47;21.37;;;;;;;;;;5047807;28;20045;-65
2023/01/07 03:34:56;;;;;;;33.97;23.07;;;;;;;;;;5065988;28;20181;-65
2023/01/07 03:37:24;;;;;;;35.33;22.27;;;;;;;;;;5067614;28;20040;-64
2023/01/07 03:39:52;;;;;;;30.37;21.23;;;;;;;;;;5068177;28;20458;-65
2023/01/07 03:42:41;;;;;;;32.60;21.73;;;;;;;;;;5068577;28;20066;-64
2023/01/07 03:45:10;;;;;;;25.50;19.83;;;;;;;;;;5056442;28;20048;-65
2023/01/07 03:47:36;;;;;;;30.03;20.43;;;;;;;;;;5052489;28;20127;-65
2023/01/07 03:50:02;;;;;;;29.67;20.33;;;;;;;;;;5069050;28;20510;-65
2023/01/07 03:52:28;;;;;;;25.93;19.60;;;;;;;;;;5068896;28;20047;-64
2023/01/07 03:54:54;;;;;;;27.00;19.00;;;;;;;;;;5068391;28;20090;-65
2023/01/07 03:57:20;;;;;;;22.53;18.17;;;;;;;;;;5055354;28;20072;-65
2023/01/07 03:59:46;;;;;;;31.00;19.93;;;;;;;;;;5048726;28;20045;-64
2023/01/07 04:02:12;;;;;;;33.83;20.13;;;;;;;;;;5051441;28;20054;-65
2023/01/07 04:04:38;;;;;;;25.77;19.20;;;;;;;;;;5061075;28;20029;-65
2023/01/07 04:07:04;;;;;;;31.63;19.73;;;;;;;;;;5047293;28;20450;-64
2023/01/07 04:09:30;;;;;;;30.83;19.33;;;;;;;;;;5048735;28;20139;-64
2023/01/07 04:11:56;;;;;;;23.50;18.17;;;;;;;;;;5047669;28;20562;-64
2023/01/07 04:14:22;;;;;;;21.97;17.07;;;;;;;;;;5052363;28;20503;-65
2023/01/07 04:16:51;;;;;;;25.87;18.27;;;;;;;;;;5065620;28;20076;-64
2023/01/07 04:19:19;;;;;;;26.40;18.60;;;;;;;;;;5048513;28;20500;-64
2023/01/07 04:21:45;;;;;;;27.03;17.67;;;;;;;;;;5048691;28;20080;-65
2023/01/07 04:24:11;;;;;;;33.97;20.47;;;;;;;;;;5050775;28;20525;-64
2023/01/07 04:26:37;;;;;;;29.03;19.07;;;;;;;;;;5068177;28;20537;-64
2023/01/07 04:29:03;;;;;;;21.17;16.83;;;;;;;;;;5066916;28;20040;-65
2023/01/07 04:31:29;;;;;;;30.27;19.93;;;;;;;;;;5067184;28;20070;-65
2023/01/07 04:33:55;;;;;;;25.07;17.90;;;;;;;;;;5056007;28;20649;-65
2023/01/07 04:36:21;;;;;;;29.43;17.50;;;;;;;;;;5056263;28;20170;-65
2023/01/07 04:38:47;;;;;;;21.87;15.67;;;;;;;;;;5057568;28;20044;-65
2023/01/07 04:41:14;;;;;;;31.17;15.60;;;;;;;;;;5059333;28;20049;-65
2023/01/07 04:43:42;;;;;;;26.20;16.67;;;;;;;;;;5057123;28;20136;-65
2023/01/07 04:46:08;;;;;;;25.77;16.27;;;;;;;;;;5056303;28;20185;-65
2023/01/07 04:48:34;;;;;;;27.33;16.90;;;;;;;;;;5056917;28;20049;-66
2023/01/07 04:51:00;;;;;;;22.77;15.27;;;;;;;;;;5058124;28;20130;-66
2023/01/07 04:53:26;;;;;;;21.03;14.70;;;;;;;;;;5058306;28;20087;-65
2023/01/07 04:55:53;;;;;;;24.10;14.90;;;;;;;;;;5055953;28;20066;-64
2023/01/07 04:58:19;;;;;;;20.67;13.90;;;;;;;;;;5057134;28;20508;-65
2023/01/07 05:00:45;;;;;;;23.77;14.70;;;;;;;;;;5057215;28;20177;-65
2023/01/07 05:03:12;;;;;;;20.83;14.07;;;;;;;;;;5056167;28;20495;-65
2023/01/07 05:05:38;;;;;;;19.07;13.27;;;;;;;;;;5058203;28;20044;-65
2023/01/07 05:08:04;;;;;;;19.80;14.07;;;;;;;;;;5056914;28;20427;-65
2023/01/07 05:10:31;;;;;;;19.67;14.13;;;;;;;;;;5057564;28;20050;-65
2023/01/07 05:12:57;;;;;;;23.83;13.57;;;;;;;;;;5058462;28;20044;-65
2023/01/07 05:15:23;;;;;;;17.50;12.80;;;;;;;;;;5056329;28;20410;-65
2023/01/07 05:17:49;;;;;;;19.90;14.13;;;;;;;;;;5057492;28;20052;-64
2023/01/07 05:20:15;;;;;;;18.70;13.03;;;;;;;;;;5058703;28;20044;-67
2023/01/07 05:22:48;;;;;;;18.60;12.80;;;;;;;;;;5057180;28;20036;-65
2023/01/07 05:25:14;;;;;;;19.48;12.10;;;;;;;;;;5060069;28;20380;-65
2023/01/07 05:27:42;;;;;;;16.67;12.13;;;;;;;;;;5060832;28;20052;-65
2023/01/07 05:30:09;;;;;;;17.23;12.27;;;;;;;;;;5059682;28;20532;-65
2023/01/07 05:32:35;;;;;;;16.70;11.87;;;;;;;;;;5061769;28;20403;-65
2023/01/07 05:35:01;;;;;;;17.30;11.83;;;;;;;;;;5060997;28;20044;-65
2023/01/07 05:37:27;;;;;;;17.23;12.43;;;;;;;;;;5061561;28;20700;-66
2023/01/07 05:39:55;;;;;;;17.97;12.30;;;;;;;;;;5058998;28;20124;-65
2023/01/07 05:42:21;;;;;;;18.90;11.67;;;;;;;;;;5060235;28;20078;-65
2023/01/07 05:44:47;;;;;;;19.47;12.60;;;;;;;;;;5059835;28;20045;-65
2023/01/07 05:47:15;;;;;;;21.23;13.37;;;;;;;;;;5060290;28;20048;-67
2023/01/07 05:49:41;;;;;;;16.73;11.20;;;;;;;;;;5060538;28;20041;-65
2023/01/07 05:52:07;;;;;;;15.17;11.87;;;;;;;;;;5061114;28;20516;-65
2023/01/07 05:54:35;;;;;;;20.00;11.90;;;;;;;;;;5066080;28;20090;-64
2023/01/07 05:57:01;;;;;;;15.53;12.03;;;;;;;;;;5052073;28;20128;-64
2023/01/07 05:59:28;;;;;;;15.77;11.00;;;;;;;;;;5051506;28;20124;-64
2023/01/07 06:01:54;;;;;;;15.90;11.90;;;;;;;;;;5051674;28;20048;-64
2023/01/07 06:04:20;;;;;;;16.17;11.50;;;;;;;;;;5051270;28;20049;-64
2023/01/07 06:06:46;;;;;;;18.20;11.23;;;;;;;;;;5050080;28;20129;-65
2023/01/07 06:09:12;;;;;;;16.27;10.27;;;;;;;;;;5051339;28;20124;-65
2023/01/07 06:11:38;;;;;;;16.67;12.07;;;;;;;;;;5050984;28;20414;-65
2023/01/07 06:14:04;;;;;;;17.63;11.50;;;;;;;;;;5067391;28;20051;-65
2023/01/07 06:16:34;;;;;;;15.57;11.03;;;;;;;;;;5068485;28;20040;-65
2023/01/07 06:19:13;;;;;;;12.10;9.43;;;;;;;;;;5068683;28;20524;-65
2023/01/07 06:21:39;;;;;;;16.43;11.40;;;;;;;;;;5066886;28;20518;-65
2023/01/07 06:24:05;;;;;;;14.40;10.50;;;;;;;;;;5055355;28;20036;-65
2023/01/07 06:26:31;;;;;;;15.93;9.70;;;;;;;;;;5050501;28;20045;-65
2023/01/07 06:28:57;;;;;;;13.60;10.00;;;;;;;;;;5052893;28;20534;-65
2023/01/07 06:31:23;;;;;;;15.50;9.53;;;;;;;;;;5049484;28;20044;-65
2023/01/07 06:33:49;;;;;;;12.10;9.10;;;;;;;;;;5050066;28;20064;-65
2023/01/07 06:36:15;;;;;;;13.03;8.63;;;;;;;;;;5048524;28;20538;-65
2023/01/07 06:38:41;;;;;;;13.70;8.87;;;;;;;;;;5054503;28;20074;-66
2023/01/07 06:41:08;;;;;;;10.73;8.00;;;;;;;;;;5067358;28;20052;-66
2023/01/07 06:43:34;;;;;;;12.83;7.77;;;;;;;;;;5066100;28;20392;-65
2023/01/07 06:46:00;;;;;;;13.60;8.33;;;;;;;;;;5063463;28;20087;-65
2023/01/07 06:48:26;;;;;;;15.53;8.60;;;;;;;;;;5062773;28;20525;-66
2023/01/07 06:50:52;;;;;;;13.67;8.20;;;;;;;;;;5062164;28;20051;-65
2023/01/07 06:53:18;;;;;;;11.23;7.80;;;;;;;;;;5059295;28;20043;-65
2023/01/07 06:55:48;;;;;;;14.00;8.10;;;;;;;;;;5057945;28;20040;-64
2023/01/07 06:58:14;;;;;;;10.60;7.43;;;;;;;;;;5067828;28;20552;-64
2023/01/07 07:00:40;;;;;;;10.50;7.47;;;;;;;;;;5069981;28;20079;-65
2023/01/07 07:03:06;;;;;;;12.00;7.30;;;;;;;;;;5070263;28;20080;-65
2023/01/07 07:05:32;;;;;;;11.30;7.67;;;;;;;;;;5070273;28;20037;-65
2023/01/07 07:07:59;;;;;;;8.57;7.37;;;;;;;;;;5066244;28;20037;-64
2023/01/07 07:10:28;;;;;;;13.23;7.10;;;;;;;;;;5049737;28;20049;-65
2023/01/07 07:12:54;;;;;;;10.10;7.10;;;;;;;;;;5049903;28;20064;-65
2023/01/07 07:15:20;;;;;;;11.07;7.10;;;;;;;;;;5048647;28;20417;-65
2023/01/07 07:17:46;;;;;;;14.07;7.33;;;;;;;;;;5049447;28;20049;-65
2023/01/07 07:20:12;;;;;;;10.53;7.57;;;;;;;;;;5069791;28;20052;-65
2023/01/07 07:22:43;;;;;;;10.10;6.93;;;;;;;;;;5069681;28;20044;-65
2023/01/07 07:25:09;;;;;;;13.33;6.63;;;;;;;;;;5069915;28;20044;-65
2023/01/07 07:27:35;;;;;;;10.10;7.30;;;;;;;;;;5059105;28;20098;-65
2023/01/07 07:30:01;;;;;;;10.13;6.87;;;;;;;;;;5050357;28;20489;-65
2023/01/07 07:32:29;;;;;;;10.30;8.00;;;;;;;;;;5048978;28;20080;-66
2023/01/07 07:34:56;;;;;;;11.03;6.93;;;;;;;;;;5047773;28;20053;-66
2023/01/07 07:37:22;;;;;;;9.53;6.70;;;;;;;;;;5049273;28;20045;-65
2023/01/07 07:39:48;;;;;;;12.20;6.43;;;;;;;;;;5048344;28;20118;-65
2023/01/07 07:42:14;;;;;;;8.27;6.60;;;;;;;;;;5053450;28;20044;-66
2023/01/07 07:44:40;;;;;;;8.87;6.93;;;;;;;;;;5068397;28;20044;-65
2023/01/07 07:47:06;;;;;;;12.47;7.40;;;;;;;;;;5064406;28;20086;-65
2023/01/07 07:49:36;;;;;;;10.43;6.90;;;;;;;;;;5049352;28;20048;-65
2023/01/07 07:52:03;;;;;;;9.53;6.63;;;;;;;;;;5067098;28;20049;-65
2023/01/07 07:54:29;;;;;;;13.03;6.90;;;;;;;;;;5067638;28;20443;-65
2023/01/07 07:56:57;;;;;;;15.53;7.33;;;;;;;;;;5068787;28;20106;-65
2023/01/07 07:59:25;;;;;;;10.80;6.30;;;;;;;;;;5057862;28;20044;-65
2023/01/07 08:01:51;;;;;;;8.20;6.60;;;;;;;;;;5048563;28;20056;-65
2023/01/07 08:04:17;;;;;;;7.63;5.93;;;;;;;;;;5053564;28;20214;-65
2023/01/07 08:06:43;;;;;;;12.43;6.20;;;;;;;;;;5068679;28;20529;-65
2023/01/07 08:09:09;;;;;;;8.40;6.67;;;;;;;;;;5067402;28;20044;-65
2023/01/07 08:11:35;;;;;;;11.70;6.10;;;;;;;;;;5056644;28;20090;-65
2023/01/07 08:14:01;;;;;;;8.03;5.83;;;;;;;;;;5048329;28;20580;-64
2023/01/07 08:16:27;;;;;;;10.00;6.37;;;;;;;;;;5057363;28;20380;-65
2023/01/07 08:18:53;;;;;;;11.27;6.27;;;;;;;;;;5068593;28;20056;-64
2023/01/07 08:21:19;;;;;;;7.30;5.77;;;;;;;;;;5068023;28;20041;-65
2023/01/07 08:23:45;;;;;;;13.50;6.87;;;;;;;;;;5068670;28;20114;-65
2023/01/07 08:26:13;;;;;;;8.67;6.10;;;;;;;;;;5068322;28;20044;-64
2023/01/07 08:28:39;;;;;;;9.60;5.73;;;;;;;;;;5067992;28;20052;-65
2023/01/07 08:31:06;;;;;;;11.93;5.70;;;;;;;;;;5056824;28;20036;-65
2023/01/07 08:33:36;;;;;;;9.47;6.37;;;;;;;;;;5058455;28;20045;-65
2023/01/07 08:36:02;;;;;;;10.90;5.13;;;;;;;;;;5067447;28;20052;-64
2023/01/07 08:38:30;;;;;;;8.00;5.83;;;;;;;;;;5068362;28;20499;-66
2023/01/07 08:40:56;;;;;;;8.20;5.50;;;;;;;;;;5067086;28;20514;-62
2023/01/07 08:43:23;;;;;;;9.23;5.40;;;;;;;;;;5061300;28;20068;-64
2023/01/07 08:45:50;;;;;;;9.23;4.93;;;;;;;;;;5046554;28;20057;-65
2023/01/07 08:48:16;;;;;;;6.33;4.97;;;;;;;;;;5047885;28;20049;-65
2023/01/07 08:50:42;;;;;;;9.47;4.53;;;;;;;;;;5047778;28;20041;-65
2023/01/07 08:53:08;;;;;;;6.53;4.80;;;;;;;;;;5049486;28;20110;-66
2023/01/07 08:55:34;;;;;;;8.23;4.67;;;;;;;;;;5067910;28;20048;-65
2023/01/07 08:58:00;;;;;;;7.50;4.57;;;;;;;;;;5067567;28;20047;-65
2023/01/07 09:00:28;;;;;;;7.27;3.80;;;;;;;;;;5063973;28;20080;-65
2023/01/07 09:02:54;;;;;;;15.13;5.77;;;;;;;;;;5052017;28;20490;-65
2023/01/07 09:05:20;;;;;;;7.77;3.73;;;;;;;;;;5052134;28;20194;-65
2023/01/07 09:07:46;;;;;;;7.67;3.90;;;;;;;;;;5052721;28;20177;-65
2023/01/07 09:10:12;;;;;;;5.90;4.10;;;;;;;;;;5070887;28;20169;-65
2023/01/07 09:12:38;;;;;;;6.73;3.93;;;;;;;;;;5069820;28;20479;-65
2023/01/07 09:15:04;;;;;;;8.07;4.00;;;;;;;;;;5048179;28;20044;-65
2023/01/07 09:17:30;;;;;;;5.10;3.63;;;;;;;;;;5040041;28;20048;-65
2023/01/07 09:19:56;;;;;;;8.90;4.03;;;;;;;;;;5050903;28;20048;-65
2023/01/07 09:22:22;;;;;;;5.47;3.37;;;;;;;;;;5059423;28;20104;-65
2023/01/07 09:24:48;;;;;;;7.47;3.40;;;;;;;;;;5067078;28;20036;-65
2023/01/07 09:27:15;;;;;;;6.43;3.47;;;;;;;;;;5071733;28;20048;-64
2023/01/07 09:29:41;;;;;;;5.13;3.17;;;;;;;;;;5053182;28;20131;-65
2023/01/07 09:32:07;;;;;;;7.40;3.90;;;;;;;;;;5071131;28;20063;-65
2023/01/07 09:34:33;;;;;;;5.43;3.77;;;;;;;;;;5062596;28;20037;-65
2023/01/07 09:37:02;;;;;;;7.83;3.70;;;;;;;;;;5052526;28;20048;-65
2023/01/07 09:39:28;;;;;;;7.03;3.77;;;;;;;;;;5054617;28;20178;-65
2023/01/07 09:42:00;;;;;;;7.00;3.50;;;;;;;;;;5070274;28;20040;-65
2023/01/07 09:44:46;;;;;;;5.67;3.20;;;;;;;;;;5064758;28;20055;-65
2023/01/07 09:47:14;;;;;;;6.43;2.87;;;;;;;;;;5049243;28;20136;-65
2023/01/07 09:49:40;;;;;;;5.90;3.53;;;;;;;;;;5050794;28;20055;-65
2023/01/07 09:52:10;;;;;;;6.77;2.90;;;;;;;;;;5052803;28;20093;-65
2023/01/07 09:54:38;;;;;;;6.93;3.63;;;;;;;;;;5051370;28;20045;-65
2023/01/07 09:57:04;;;;;;;4.17;3.20;;;;;;;;;;5050638;28;20064;-65
2023/01/07 09:59:30;;;;;;;4.70;2.53;;;;;;;;;;5050921;28;20045;-65
2023/01/07 10:02:02;;;;;;;5.60;3.10;;;;;;;;;;5050921;28;20041;-65
2023/01/07 10:04:34;;;;;;;7.20;2.30;;;;;;;;;;5051044;28;20411;-65
2023/01/07 10:07:03;;;;;;;4.83;2.40;;;;;;;;;;5060967;28;20076;-65
2023/01/07 10:09:37;;;;;;;3.83;2.27;;;;;;;;;;5054432;28;20048;-65
2023/01/07 10:12:06;;;;;;;4.40;2.30;;;;;;;;;;5050852;28;20503;-65
2023/01/07 10:14:50;;;;;;;3.67;2.20;;;;;;;;;;5051021;28;20049;-64
2023/01/07 10:17:29;;;;;;;6.63;2.10;;;;;;;;;;5052681;28;20052;-64
2023/01/07 10:19:58;;;;;;;4.60;2.50;;;;;;;;;;5051067;28;20068;-64
2023/01/07 10:22:24;;;;;;;4.13;2.03;;;;;;;;;;5064734;28;20056;-65
2023/01/07 10:24:52;;;;;;;5.93;2.47;;;;;;;;;;5068166;28;20084;-63
2023/01/07 10:27:24;;;;;;;3.80;2.03;;;;;;;;;;5058027;28;20048;-63
2023/01/07 10:29:53;;;;;;;3.47;2.03;;;;;;;;;;5070554;28;20469;-64
2023/01/07 10:32:20;;;;;;;4.60;2.07;;;;;;;;;;5051678;28;20412;-64
2023/01/07 10:34:48;;;;;;;3.30;2.00;;;;;;;;;;5048711;28;20049;-63
2023/01/07 10:37:26;;;;;;;4.27;1.87;;;;;;;;;;5057901;28;20037;-63
2023/01/07 10:40:02;;;;;;;2.90;1.80;;;;;;;;;;5070365;28;20040;-64
2023/01/07 10:42:34;;;;;;;7.03;2.20;;;;;;;;;;5069719;28;20355;-64
2023/01/07 10:45:00;;;;;;;4.53;1.67;;;;;;;;;;5068774;28;20582;-64
2023/01/07 10:47:26;;;;;;;3.03;1.70;;;;;;;;;;5067126;28;20112;-64
2023/01/07 10:49:52;;;;;;;4.03;1.80;;;;;;;;;;5069031;28;20057;-64
2023/01/07 10:52:31;;;;;;;3.10;1.47;;;;;;;;;;5069062;28;20052;-63
2023/01/07 10:55:15;;;;;;;2.83;1.60;;;;;;;;;;5054821;28;20056;-64
2023/01/07 10:57:41;;;;;;;3.33;1.87;;;;;;;;;;5049833;28;20053;-63
2023/01/07 11:00:11;;;;;;;2.70;1.47;;;;;;;;;;5050108;28;20053;-64
2023/01/07 11:02:38;;;;;;;2.90;1.63;;;;;;;;;;5050343;28;20499;-64
2023/01/07 11:05:04;;;;;;;3.63;1.70;;;;;;;;;;5050308;28;20578;-63
2023/01/07 11:07:45;;;;;;;3.57;1.87;;;;;;;;;;5049308;28;20490;-63
2023/01/07 11:10:19;;;;;;;2.77;1.90;;;;;;;;;;5048450;28;20152;-63
2023/01/07 11:13:04;;;;;;;2.63;1.40;;;;;;;;;;5049151;28;20048;-64
2023/01/07 11:15:35;;;;;;;3.83;2.07;;;;;;;;;;5057671;28;20052;-63
2023/01/07 11:18:16;;;;;;;3.10;1.63;;;;;;;;;;5057402;28;20128;-63
2023/01/07 11:20:43;;;;;;;3.27;1.70;;;;;;;;;;5055757;28;20088;-63
2023/01/07 11:23:31;;;;;;;4.93;1.60;;;;;;;;;;5061314;28;20049;-63
2023/01/07 11:26:14;;;;;;;2.50;1.60;;;;;;;;;;5068505;28;20055;-63
2023/01/07 11:28:46;;;;;;;5.20;1.45;;;;;;;;;;5069063;28;20048;-63
2023/01/07 11:31:12;;;;;;;4.77;1.77;;;;;;;;;;5060093;28;20442;-63
2023/01/07 11:33:48;;;;;;;3.23;2.00;;;;;;;;;;5053415;28;20093;-63
2023/01/07 11:36:14;;;;;;;4.07;1.53;;;;;;;;;;5065634;28;20529;-63
2023/01/07 11:38:40;;;;;;;3.73;2.37;;;;;;;;;;5067715;28;20044;-63
2023/01/07 11:41:07;;;;;;;3.27;1.40;;;;;;;;;;5068724;28;20048;-63
2023/01/07 11:43:40;;;;;;;3.40;1.90;;;;;;;;;;5066257;28;20041;-63
2023/01/07 11:46:13;;;;;;;2.67;1.60;;;;;;;;;;5066733;28;20101;-64
2023/01/07 11:48:41;;;;;;;;;;;;;;;;;;5068854;28;21009;-64
2023/01/07 11:51:10;;;;;;;2.57;0.93;;;;;;;;;;5065946;28;19928;-64
2023/01/07 11:53:36;;;;;;;4.70;1.30;;;;;;;;;;5063664;28;20066;-64
2023/01/07 11:56:07;;;;;;;3.87;1.60;;;;;;;;;;5066554;28;20491;-64
2023/01/07 11:58:38;;;;;;;2.23;1.40;;;;;;;;;;5066207;28;20044;-63
2023/01/07 12:01:07;;;;;;;4.37;1.30;;;;;;;;;;5068015;28;20392;-63
2023/01/07 12:03:42;;;;;;;2.63;1.00;;;;;;;;;;5067466;28;20518;-63
2023/01/07 12:06:28;;;;;;;2.50;1.30;;;;;;;;;;5067901;28;20123;-63
2023/01/07 12:08:54;;;;;;;2.57;1.13;;;;;;;;;;5066078;28;20051;-63
2023/01/07 12:11:20;;;;;;;2.10;1.20;;;;;;;;;;5067458;28;20084;-63
2023/01/07 12:13:48;;;;;;;2.13;1.20;;;;;;;;;;5064954;28;20051;-63
2023/01/07 12:16:14;;;;;;;2.97;1.20;;;;;;;;;;5067930;28;20102;-63
2023/01/07 12:19:01;;;;;;;3.57;1.40;;;;;;;;;;5067018;28;20055;-63
2023/01/07 12:21:27;;;;;;;2.87;1.43;;;;;;;;;;5065749;28;20045;-64
2023/01/07 12:24:04;;;;;;;4.33;1.67;;;;;;;;;;5060287;28;20055;-63
2023/01/07 12:26:35;;;;;;;2.10;1.30;;;;;;;;;;5054159;28;20048;-63
2023/01/07 12:29:01;;;;;;;2.73;1.40;;;;;;;;;;5048328;28;20049;-63
2023/01/07 12:31:38;;;;;;;2.70;1.23;;;;;;;;;;5064037;28;20491;-63
2023/01/07 12:34:17;;;;;;;1.90;1.17;;;;;;;;;;5064822;28;20048;-63
2023/01/07 12:36:54;;;;;;;2.63;1.13;;;;;;;;;;5065828;28;20183;-63
2023/01/07 12:39:25;;;;;;;3.97;1.40;;;;;;;;;;5062828;28;20090;-63
2023/01/07 12:41:57;;;;;;;5.30;1.37;;;;;;;;;;5052173;28;20052;-63
2023/01/07 12:44:23;;;;;;;2.50;1.40;;;;;;;;;;5064984;28;20048;-63
2023/01/07 12:46:58;;;;;;;1.90;1.03;;;;;;;;;;5030667;28;1067136;-63
2023/01/07 12:49:28;;;;;;;2.00;1.07;;;;;;;;;;5065733;28;20062;-63
2023/01/07 12:52:05;;;;;;;2.37;1.10;;;;;;;;;;5067513;28;20048;-62
2023/01/07 12:54:34;;;;;;;2.33;1.10;;;;;;;;;;5066417;28;20037;-63
2023/01/07 12:57:03;;;;;;;3.23;1.00;;;;;;;;;;5066472;28;20533;-63
2023/01/07 12:59:44;;;;;;;2.30;1.23;;;;;;;;;;5066806;28;20108;-63
2023/01/07 13:02:16;;;;;;;3.53;1.10;;;;;;;;;;5066539;28;20111;-63
2023/01/07 13:05:00;;;;;;;3.50;1.30;;;;;;;;;;5067027;28;20047;-63
2023/01/07 13:07:44;;;;;;;1.97;1.40;;;;;;;;;;5051940;28;20708;-63
2023/01/07 13:10:14;;;;;;;2.53;1.30;;;;;;;;;;5066654;28;20117;-63
2023/01/07 13:12:47;;;;;;;2.33;1.00;;;;;;;;;;5066387;28;20048;-63
2023/01/07 13:15:21;;;;;;;3.80;1.20;;;;;;;;;;5067658;28;20047;-63
2023/01/07 13:17:52;;;;;;;2.07;1.00;;;;;;;;;;5067385;28;20106;-63
2023/01/07 13:20:25;;;;;;;3.03;0.80;;;;;;;;;;5066927;28;20056;-63
2023/01/07 13:22:54;;;;;;;1.83;1.00;;;;;;;;;;5048048;28;20494;-63
2023/01/07 13:25:23;;;;;;;2.37;1.00;;;;;;;;;;5062790;28;20036;-63
2023/01/07 13:28:02;;;;;;;2.43;1.10;;;;;;;;;;5067320;28;20040;-63
2023/01/07 13:30:45;;;;;;;2.17;1.10;;;;;;;;;;5065086;28;20041;-63
2023/01/07 13:33:11;;;;;;;3.40;1.00;;;;;;;;;;5047758;28;20048;-62
2023/01/07 13:35:49;;;;;;;2.27;1.10;;;;;;;;;;5063447;28;20056;-62
2023/01/07 13:38:22;;;;;;;3.47;1.40;;;;;;;;;;5067383;28;20171;-63
2023/01/07 13:41:01;;;;;;;2.38;1.13;;;;;;;;;;5066872;28;20040;-62
2023/01/07 13:43:27;;;;;;;2.10;1.27;;;;;;;;;;5067232;28;20078;-63
2023/01/07 13:46:01;;;;;;;2.60;1.33;;;;;;;;;;5061851;28;20061;-63
2023/01/07 13:48:27;;;;;;;3.27;1.40;;;;;;;;;;5051047;28;20068;-63
2023/01/07 13:51:00;;;;;;;3.00;1.50;;;;;;;;;;5049425;28;20106;-62
2023/01/07 13:53:26;;;;;;;2.50;1.20;;;;;;;;;;5067010;28;20048;-63
2023/01/07 13:55:56;;;;;;;3.80;1.50;;;;;;;;;;5068690;28;20044;-62
2023/01/07 13:58:28;;;;;;;2.80;1.30;;;;;;;;;;5065368;28;20410;-63
2023/01/07 14:01:14;;;;;;;2.47;1.40;;;;;;;;;;5067691;28;20036;-63
2023/01/07 14:03:41;;;;;;;2.80;1.40;;;;;;;;;;5068108;28;20094;-62
2023/01/07 14:06:22;;;;;;;3.50;1.47;;;;;;;;;;5070568;28;20106;-62
2023/01/07 14:08:53;;;;;;;3.73;1.70;;;;;;;;;;5070487;28;20395;-62
2023/01/07 14:11:20;;;;;;;2.57;1.27;;;;;;;;;;5070180;28;20044;-62
2023/01/07 14:14:04;;;;;;;3.10;1.30;;;;;;;;;;5061272;28;20056;-63
2023/01/07 14:17:05;;;;;;;2.97;1.50;;;;;;;;;;5069683;28;20040;-62
2023/01/07 14:19:51;;;;;;;3.00;1.47;;;;;;;;;;5025443;28;20041;-62
2023/01/07 14:22:17;;;;;;;2.93;1.47;;;;;;;;;;5050288;28;20506;-62
2023/01/07 14:25:02;;;;;;;3.40;1.50;;;;;;;;;;5050329;28;20052;-62
2023/01/07 14:27:37;;;;;;;3.07;1.70;;;;;;;;;;5068405;28;20040;-62
2023/01/07 14:30:23;;;;;;;3.23;1.27;;;;;;;;;;5060154;28;20056;-62
2023/01/07 14:33:05;;;;;;;3.83;1.73;;;;;;;;;;5061693;28;20469;-62
2023/01/07 14:35:36;;;;;;;2.70;1.30;;;;;;;;;;5067699;28;20052;-62
2023/01/07 14:38:22;;;;;;;3.23;1.37;;;;;;;;;;5066031;28;20101;-62
2023/01/07 14:41:00;;;;;;;2.57;1.53;;;;;;;;;;5067673;28;20052;-62
2023/01/07 14:43:47;;;;;;;2.10;1.47;;;;;;;;;;5068342;28;20068;-62
2023/01/07 14:46:22;;;;;;;5.27;1.60;;;;;;;;;;5068320;28;20127;-62